CheckWX is a tool to help pilots better visualize weather data.  It is not intended as a substitute for an official pre-flight weather briefing.

12:17:37 UTC

GQPP METAR
Nouadhibou International Airport
Nouadhibou, Mauritania
Current

1 hour ago

GQPP 221100Z 04009KT 8000 NSC 21/10 Q1020 NOSIG
Observed
Feb-22 @ 11:00 UTC
Wind
  • 040° at 9 KTS
Visibility
7,998 meters
Flight Rules
MVFR
Cloud Levels
  • Clear skies
Temperature
21°C / 70°F
Dewpoint
10°C / 50°F
Humidity
50%
Altimeter
30.12" Hg
Pressure
1019.92 hPa
Previous

2 hours ago

GQPP 221000Z 03010KT 8000 NSC 19/13 Q1019 NOSIG
Observed
Feb-22 @ 10:00 UTC
Wind
  • 030° at 10 KTS
Visibility
7,998 meters
Flight Rules
MVFR
Cloud Levels
  • Clear skies
Temperature
19°C / 66°F
Dewpoint
13°C / 55°F
Humidity
68%
Altimeter
30.09" Hg
Pressure
1018.92 hPa
Previous

3 hours ago

GQPP 220900Z 03009KT 8000 NSC 17/13 Q1019 NOSIG
Observed
Feb-22 @ 09:00 UTC
Wind
  • 030° at 9 KTS
Visibility
7,998 meters
Flight Rules
MVFR
Cloud Levels
  • Clear skies
Temperature
17°C / 63°F
Dewpoint
13°C / 55°F
Humidity
77%
Altimeter
30.09" Hg
Pressure
1018.92 hPa